sensor_id;sensor_type;location;lat;lon;timestamp;P1;durP1;ratioP1;P2;durP2;ratioP2
23472;SDS011;11909;52.516;13.564;2023-05-07T00:00:49;13.25;;;11.15;;
23472;SDS011;11909;52.516;13.564;2023-05-07T00:03:17;14.48;;;11.07;;
23472;SDS011;11909;52.516;13.564;2023-05-07T00:05:46;15.48;;;11.75;;
23472;SDS011;11909;52.516;13.564;2023-05-07T00:08:14;15.25;;;10.90;;
23472;SDS011;11909;52.516;13.564;2023-05-07T00:10:43;17.40;;;11.05;;
23472;SDS011;11909;52.516;13.564;2023-05-07T00:13:12;14.68;;;11.15;;
23472;SDS011;11909;52.516;13.564;2023-05-07T00:15:41;15.00;;;10.30;;
23472;SDS011;11909;52.516;13.564;2023-05-07T00:18:08;15.45;;;10.90;;
23472;SDS011;11909;52.516;13.564;2023-05-07T00:20:36;12.88;;;10.05;;
23472;SDS011;11909;52.516;13.564;2023-05-07T00:23:06;14.50;;;10.60;;
23472;SDS011;11909;52.516;13.564;2023-05-07T00:25:33;13.63;;;11.05;;
23472;SDS011;11909;52.516;13.564;2023-05-07T00:28:01;13.60;;;11.02;;
23472;SDS011;11909;52.516;13.564;2023-05-07T00:30:30;16.42;;;11.90;;
23472;SDS011;11909;52.516;13.564;2023-05-07T00:32:57;14.43;;;11.07;;
23472;SDS011;11909;52.516;13.564;2023-05-07T00:35:25;15.07;;;11.15;;
23472;SDS011;11909;52.516;13.564;2023-05-07T00:37:53;14.98;;;11.23;;
23472;SDS011;11909;52.516;13.564;2023-05-07T00:40:22;14.40;;;10.02;;
23472;SDS011;11909;52.516;13.564;2023-05-07T00:42:50;12.27;;;10.63;;
23472;SDS011;11909;52.516;13.564;2023-05-07T00:45:25;14.02;;;10.98;;
23472;SDS011;11909;52.516;13.564;2023-05-07T00:47:54;13.00;;;10.93;;
23472;SDS011;11909;52.516;13.564;2023-05-07T00:50:23;12.90;;;10.43;;
23472;SDS011;11909;52.516;13.564;2023-05-07T00:52:52;13.02;;;10.40;;
23472;SDS011;11909;52.516;13.564;2023-05-07T00:55:22;13.43;;;11.00;;
23472;SDS011;11909;52.516;13.564;2023-05-07T00:57:51;13.77;;;10.30;;
23472;SDS011;11909;52.516;13.564;2023-05-07T01:00:19;14.38;;;11.18;;
23472;SDS011;11909;52.516;13.564;2023-05-07T01:02:47;14.13;;;11.15;;
23472;SDS011;11909;52.516;13.564;2023-05-07T01:05:16;14.45;;;10.15;;
23472;SDS011;11909;52.516;13.564;2023-05-07T01:10:14;17.08;;;11.10;;
23472;SDS011;11909;52.516;13.564;2023-05-07T01:12:45;13.52;;;10.80;;
23472;SDS011;11909;52.516;13.564;2023-05-07T01:17:42;14.32;;;10.68;;
23472;SDS011;11909;52.516;13.564;2023-05-07T01:20:11;14.57;;;11.55;;
23472;SDS011;11909;52.516;13.564;2023-05-07T01:22:41;13.93;;;11.05;;
23472;SDS011;11909;52.516;13.564;2023-05-07T01:25:11;12.27;;;10.18;;
23472;SDS011;11909;52.516;13.564;2023-05-07T01:27:39;13.45;;;10.65;;
23472;SDS011;11909;52.516;13.564;2023-05-07T01:30:07;14.18;;;10.60;;
23472;SDS011;11909;52.516;13.564;2023-05-07T01:32:38;13.93;;;10.32;;
23472;SDS011;11909;52.516;13.564;2023-05-07T01:35:11;16.00;;;10.63;;
23472;SDS011;11909;52.516;13.564;2023-05-07T01:37:42;13.23;;;9.88;;
23472;SDS011;11909;52.516;13.564;2023-05-07T01:40:10;12.18;;;10.43;;
23472;SDS011;11909;52.516;13.564;2023-05-07T01:42:38;11.85;;;10.02;;
23472;SDS011;11909;52.516;13.564;2023-05-07T01:45:09;12.37;;;10.07;;
23472;SDS011;11909;52.516;13.564;2023-05-07T01:47:38;13.48;;;10.88;;
23472;SDS011;11909;52.516;13.564;2023-05-07T01:50:07;17.02;;;11.23;;
23472;SDS011;11909;52.516;13.564;2023-05-07T01:52:37;13.68;;;10.02;;
23472;SDS011;11909;52.516;13.564;2023-05-07T01:55:07;13.20;;;9.82;;
23472;SDS011;11909;52.516;13.564;2023-05-07T01:57:35;15.82;;;10.30;;
23472;SDS011;11909;52.516;13.564;2023-05-07T02:00:03;13.13;;;9.88;;
23472;SDS011;11909;52.516;13.564;2023-05-07T02:02:32;12.77;;;10.07;;
23472;SDS011;11909;52.516;13.564;2023-05-07T02:05:00;13.65;;;10.73;;
23472;SDS011;11909;52.516;13.564;2023-05-07T02:07:28;12.27;;;9.82;;
23472;SDS011;11909;52.516;13.564;2023-05-07T02:09:56;13.48;;;11.38;;
23472;SDS011;11909;52.516;13.564;2023-05-07T02:12:25;14.57;;;10.20;;
23472;SDS011;11909;52.516;13.564;2023-05-07T02:14:53;13.65;;;10.43;;
23472;SDS011;11909;52.516;13.564;2023-05-07T02:17:21;14.15;;;10.63;;
23472;SDS011;11909;52.516;13.564;2023-05-07T02:19:49;16.10;;;11.27;;
23472;SDS011;11909;52.516;13.564;2023-05-07T02:22:17;12.55;;;10.50;;
23472;SDS011;11909;52.516;13.564;2023-05-07T02:24:45;17.15;;;10.30;;
23472;SDS011;11909;52.516;13.564;2023-05-07T02:27:13;12.20;;;9.82;;
23472;SDS011;11909;52.516;13.564;2023-05-07T02:29:42;12.70;;;9.75;;
23472;SDS011;11909;52.516;13.564;2023-05-07T02:32:10;14.90;;;10.45;;
23472;SDS011;11909;52.516;13.564;2023-05-07T02:34:37;14.15;;;10.70;;
23472;SDS011;11909;52.516;13.564;2023-05-07T02:37:05;13.45;;;9.68;;
23472;SDS011;11909;52.516;13.564;2023-05-07T02:39:34;12.48;;;9.75;;
23472;SDS011;11909;52.516;13.564;2023-05-07T02:42:03;13.25;;;10.27;;
23472;SDS011;11909;52.516;13.564;2023-05-07T02:44:30;16.70;;;10.38;;
23472;SDS011;11909;52.516;13.564;2023-05-07T02:47:00;12.35;;;9.93;;
23472;SDS011;11909;52.516;13.564;2023-05-07T02:49:27;12.68;;;9.93;;
23472;SDS011;11909;52.516;13.564;2023-05-07T02:51:55;12.98;;;10.30;;
23472;SDS011;11909;52.516;13.564;2023-05-07T02:54:23;13.50;;;9.88;;
23472;SDS011;11909;52.516;13.564;2023-05-07T02:56:51;12.77;;;10.32;;
23472;SDS011;11909;52.516;13.564;2023-05-07T02:59:19;12.73;;;10.43;;
23472;SDS011;11909;52.516;13.564;2023-05-07T03:01:47;14.68;;;10.90;;
23472;SDS011;11909;52.516;13.564;2023-05-07T03:04:17;12.73;;;9.77;;
23472;SDS011;11909;52.516;13.564;2023-05-07T03:06:44;13.18;;;10.05;;
23472;SDS011;11909;52.516;13.564;2023-05-07T03:09:13;12.13;;;10.38;;
23472;SDS011;11909;52.516;13.564;2023-05-07T03:11:40;11.50;;;9.55;;
23472;SDS011;11909;52.516;13.564;2023-05-07T03:14:08;17.13;;;11.48;;
23472;SDS011;11909;52.516;13.564;2023-05-07T03:16:36;12.40;;;9.93;;
23472;SDS011;11909;52.516;13.564;2023-05-07T03:19:04;13.88;;;11.20;;
23472;SDS011;11909;52.516;13.564;2023-05-07T03:21:33;14.88;;;11.57;;
23472;SDS011;11909;52.516;13.564;2023-05-07T03:24:01;12.85;;;10.75;;
23472;SDS011;11909;52.516;13.564;2023-05-07T03:26:29;14.05;;;10.45;;
23472;SDS011;11909;52.516;13.564;2023-05-07T03:28:57;12.27;;;10.75;;
23472;SDS011;11909;52.516;13.564;2023-05-07T03:31:25;11.73;;;9.60;;
23472;SDS011;11909;52.516;13.564;2023-05-07T03:33:53;12.73;;;9.88;;
23472;SDS011;11909;52.516;13.564;2023-05-07T03:36:23;14.50;;;9.53;;
23472;SDS011;11909;52.516;13.564;2023-05-07T03:38:54;11.88;;;9.90;;
23472;SDS011;11909;52.516;13.564;2023-05-07T03:41:22;11.93;;;8.77;;
23472;SDS011;11909;52.516;13.564;2023-05-07T03:43:50;12.13;;;8.98;;
23472;SDS011;11909;52.516;13.564;2023-05-07T03:46:17;13.90;;;9.68;;
23472;SDS011;11909;52.516;13.564;2023-05-07T03:48:45;15.63;;;9.80;;
23472;SDS011;11909;52.516;13.564;2023-05-07T03:51:13;11.27;;;8.98;;
23472;SDS011;11909;52.516;13.564;2023-05-07T03:53:41;12.45;;;10.27;;
23472;SDS011;11909;52.516;13.564;2023-05-07T03:56:10;12.52;;;8.88;;
23472;SDS011;11909;52.516;13.564;2023-05-07T03:58:38;18.15;;;9.68;;
23472;SDS011;11909;52.516;13.564;2023-05-07T04:01:06;12.82;;;9.75;;
23472;SDS011;11909;52.516;13.564;2023-05-07T04:03:34;11.25;;;9.90;;
23472;SDS011;11909;52.516;13.564;2023-05-07T04:06:02;11.70;;;9.27;;
23472;SDS011;11909;52.516;13.564;2023-05-07T04:08:30;11.07;;;8.75;;
23472;SDS011;11909;52.516;13.564;2023-05-07T04:10:58;12.68;;;8.88;;
23472;SDS011;11909;52.516;13.564;2023-05-07T04:13:28;10.27;;;8.40;;
23472;SDS011;11909;52.516;13.564;2023-05-07T04:15:57;13.77;;;9.38;;
23472;SDS011;11909;52.516;13.564;2023-05-07T04:18:25;11.73;;;8.80;;
23472;SDS011;11909;52.516;13.564;2023-05-07T04:20:53;14.88;;;9.32;;
23472;SDS011;11909;52.516;13.564;2023-05-07T04:23:21;12.23;;;8.73;;
23472;SDS011;11909;52.516;13.564;2023-05-07T04:25:49;13.15;;;8.75;;
23472;SDS011;11909;52.516;13.564;2023-05-07T04:28:17;15.00;;;7.88;;
23472;SDS011;11909;52.516;13.564;2023-05-07T04:30:46;12.13;;;8.73;;
23472;SDS011;11909;52.516;13.564;2023-05-07T04:33:14;12.70;;;8.35;;
23472;SDS011;11909;52.516;13.564;2023-05-07T04:35:43;12.43;;;8.50;;
23472;SDS011;11909;52.516;13.564;2023-05-07T04:38:11;9.70;;;8.45;;
23472;SDS011;11909;52.516;13.564;2023-05-07T04:40:39;11.77;;;7.75;;
23472;SDS011;11909;52.516;13.564;2023-05-07T04:43:07;9.23;;;7.55;;
23472;SDS011;11909;52.516;13.564;2023-05-07T04:45:35;14.20;;;8.10;;
23472;SDS011;11909;52.516;13.564;2023-05-07T04:48:05;9.13;;;7.63;;
23472;SDS011;11909;52.516;13.564;2023-05-07T04:50:33;10.05;;;7.82;;
23472;SDS011;11909;52.516;13.564;2023-05-07T04:53:01;9.82;;;7.57;;
23472;SDS011;11909;52.516;13.564;2023-05-07T04:55:30;9.77;;;7.72;;
23472;SDS011;11909;52.516;13.564;2023-05-07T04:57:58;9.43;;;7.55;;
23472;SDS011;11909;52.516;13.564;2023-05-07T05:00:28;8.82;;;7.65;;
23472;SDS011;11909;52.516;13.564;2023-05-07T05:02:56;10.30;;;7.55;;
23472;SDS011;11909;52.516;13.564;2023-05-07T05:05:25;10.43;;;7.93;;
23472;SDS011;11909;52.516;13.564;2023-05-07T05:07:53;11.52;;;8.40;;
23472;SDS011;11909;52.516;13.564;2023-05-07T05:10:22;10.15;;;8.30;;
23472;SDS011;11909;52.516;13.564;2023-05-07T05:12:50;10.68;;;7.88;;
23472;SDS011;11909;52.516;13.564;2023-05-07T05:15:18;9.73;;;7.50;;
23472;SDS011;11909;52.516;13.564;2023-05-07T05:17:46;10.48;;;7.90;;
23472;SDS011;11909;52.516;13.564;2023-05-07T05:20:14;8.75;;;7.80;;
23472;SDS011;11909;52.516;13.564;2023-05-07T05:22:43;13.18;;;8.65;;
23472;SDS011;11909;52.516;13.564;2023-05-07T05:25:11;11.88;;;8.05;;
23472;SDS011;11909;52.516;13.564;2023-05-07T05:27:38;10.82;;;8.02;;
23472;SDS011;11909;52.516;13.564;2023-05-07T05:30:07;11.60;;;8.02;;
23472;SDS011;11909;52.516;13.564;2023-05-07T05:32:35;12.80;;;8.80;;
23472;SDS011;11909;52.516;13.564;2023-05-07T05:35:04;10.63;;;7.75;;
23472;SDS011;11909;52.516;13.564;2023-05-07T05:37:32;11.30;;;8.13;;
23472;SDS011;11909;52.516;13.564;2023-05-07T05:40:01;10.88;;;8.32;;
23472;SDS011;11909;52.516;13.564;2023-05-07T05:42:30;11.55;;;8.05;;
23472;SDS011;11909;52.516;13.564;2023-05-07T05:44:58;11.70;;;8.45;;
23472;SDS011;11909;52.516;13.564;2023-05-07T05:47:26;10.35;;;8.10;;
23472;SDS011;11909;52.516;13.564;2023-05-07T05:49:53;11.30;;;8.45;;
23472;SDS011;11909;52.516;13.564;2023-05-07T05:52:21;13.10;;;8.90;;
23472;SDS011;11909;52.516;13.564;2023-05-07T05:54:50;11.35;;;8.10;;
23472;SDS011;11909;52.516;13.564;2023-05-07T05:57:19;14.27;;;7.80;;
23472;SDS011;11909;52.516;13.564;2023-05-07T05:59:47;11.35;;;8.48;;
23472;SDS011;11909;52.516;13.564;2023-05-07T06:02:15;8.95;;;7.65;;
23472;SDS011;11909;52.516;13.564;2023-05-07T06:04:42;9.30;;;8.02;;
23472;SDS011;11909;52.516;13.564;2023-05-07T06:07:10;10.90;;;8.15;;
23472;SDS011;11909;52.516;13.564;2023-05-07T06:09:38;10.15;;;7.60;;
23472;SDS011;11909;52.516;13.564;2023-05-07T06:12:06;9.20;;;7.20;;
23472;SDS011;11909;52.516;13.564;2023-05-07T06:14:35;10.05;;;7.63;;
23472;SDS011;11909;52.516;13.564;2023-05-07T06:17:04;10.55;;;7.75;;
23472;SDS011;11909;52.516;13.564;2023-05-07T06:19:32;8.20;;;6.90;;
23472;SDS011;11909;52.516;13.564;2023-05-07T06:21:59;11.32;;;7.68;;
23472;SDS011;11909;52.516;13.564;2023-05-07T06:24:29;11.90;;;7.20;;
23472;SDS011;11909;52.516;13.564;2023-05-07T06:26:56;9.18;;;7.18;;
23472;SDS011;11909;52.516;13.564;2023-05-07T06:29:25;11.52;;;7.78;;
23472;SDS011;11909;52.516;13.564;2023-05-07T06:31:54;9.98;;;7.43;;
23472;SDS011;11909;52.516;13.564;2023-05-07T06:34:22;9.35;;;6.82;;
23472;SDS011;11909;52.516;13.564;2023-05-07T06:36:50;7.47;;;6.57;;
23472;SDS011;11909;52.516;13.564;2023-05-07T06:39:18;13.18;;;6.70;;
23472;SDS011;11909;52.516;13.564;2023-05-07T06:41:46;9.38;;;6.65;;
23472;SDS011;11909;52.516;13.564;2023-05-07T06:44:13;6.90;;;6.20;;
23472;SDS011;11909;52.516;13.564;2023-05-07T06:46:41;7.88;;;6.35;;
23472;SDS011;11909;52.516;13.564;2023-05-07T06:49:12;8.00;;;6.45;;
23472;SDS011;11909;52.516;13.564;2023-05-07T06:51:40;9.52;;;6.38;;
23472;SDS011;11909;52.516;13.564;2023-05-07T06:54:08;10.15;;;6.47;;
23472;SDS011;11909;52.516;13.564;2023-05-07T06:56:36;9.13;;;5.90;;
23472;SDS011;11909;52.516;13.564;2023-05-07T06:59:03;8.05;;;6.38;;
23472;SDS011;11909;52.516;13.564;2023-05-07T07:01:31;8.25;;;6.00;;
23472;SDS011;11909;52.516;13.564;2023-05-07T07:03:59;10.30;;;5.72;;
23472;SDS011;11909;52.516;13.564;2023-05-07T07:06:29;8.70;;;6.20;;
23472;SDS011;11909;52.516;13.564;2023-05-07T07:11:26;7.47;;;5.43;;
23472;SDS011;11909;52.516;13.564;2023-05-07T07:13:53;6.03;;;5.35;;
23472;SDS011;11909;52.516;13.564;2023-05-07T07:16:22;6.82;;;5.20;;
23472;SDS011;11909;52.516;13.564;2023-05-07T07:18:49;6.45;;;5.22;;
23472;SDS011;11909;52.516;13.564;2023-05-07T07:21:17;8.38;;;5.28;;
23472;SDS011;11909;52.516;13.564;2023-05-07T07:23:47;5.90;;;4.53;;
23472;SDS011;11909;52.516;13.564;2023-05-07T07:26:14;5.70;;;5.00;;
23472;SDS011;11909;52.516;13.564;2023-05-07T07:28:42;6.43;;;5.03;;
23472;SDS011;11909;52.516;13.564;2023-05-07T07:31:11;6.32;;;5.05;;
23472;SDS011;11909;52.516;13.564;2023-05-07T07:33:39;7.88;;;4.72;;
23472;SDS011;11909;52.516;13.564;2023-05-07T07:36:07;6.65;;;4.97;;
23472;SDS011;11909;52.516;13.564;2023-05-07T07:38:35;7.00;;;4.60;;
23472;SDS011;11909;52.516;13.564;2023-05-07T07:41:04;76.75;;;42.08;;
23472;SDS011;11909;52.516;13.564;2023-05-07T07:43:32;32.95;;;18.70;;
23472;SDS011;11909;52.516;13.564;2023-05-07T07:46:00;6.18;;;5.15;;
23472;SDS011;11909;52.516;13.564;2023-05-07T07:48:28;6.72;;;4.38;;
23472;SDS011;11909;52.516;13.564;2023-05-07T07:50:55;6.20;;;4.43;;
23472;SDS011;11909;52.516;13.564;2023-05-07T07:53:23;10.65;;;4.22;;
23472;SDS011;11909;52.516;13.564;2023-05-07T07:55:51;5.00;;;4.00;;
23472;SDS011;11909;52.516;13.564;2023-05-07T07:58:25;6.10;;;4.32;;
23472;SDS011;11909;52.516;13.564;2023-05-07T08:00:53;3.90;;;3.50;;
23472;SDS011;11909;52.516;13.564;2023-05-07T08:03:22;6.28;;;3.80;;
23472;SDS011;11909;52.516;13.564;2023-05-07T08:05:50;5.95;;;3.70;;
23472;SDS011;11909;52.516;13.564;2023-05-07T08:08:18;6.10;;;3.42;;
23472;SDS011;11909;52.516;13.564;2023-05-07T08:10:46;3.97;;;3.40;;
23472;SDS011;11909;52.516;13.564;2023-05-07T08:13:17;5.57;;;3.70;;
23472;SDS011;11909;52.516;13.564;2023-05-07T08:15:47;5.85;;;3.38;;
23472;SDS011;11909;52.516;13.564;2023-05-07T08:18:14;5.47;;;3.30;;
23472;SDS011;11909;52.516;13.564;2023-05-07T08:20:42;5.00;;;3.25;;
23472;SDS011;11909;52.516;13.564;2023-05-07T08:23:10;7.07;;;3.63;;
23472;SDS011;11909;52.516;13.564;2023-05-07T08:25:38;24.67;;;15.52;;
23472;SDS011;11909;52.516;13.564;2023-05-07T08:28:06;34.90;;;18.50;;
23472;SDS011;11909;52.516;13.564;2023-05-07T08:30:35;6.78;;;5.13;;
23472;SDS011;11909;52.516;13.564;2023-05-07T08:33:04;7.78;;;3.10;;
23472;SDS011;11909;52.516;13.564;2023-05-07T08:35:32;3.42;;;3.10;;
23472;SDS011;11909;52.516;13.564;2023-05-07T08:38:00;6.35;;;3.22;;
23472;SDS011;11909;52.516;13.564;2023-05-07T08:40:28;20.67;;;10.65;;
23472;SDS011;11909;52.516;13.564;2023-05-07T08:42:59;4.75;;;3.63;;
23472;SDS011;11909;52.516;13.564;2023-05-07T08:45:29;5.63;;;2.73;;
23472;SDS011;11909;52.516;13.564;2023-05-07T08:48:02;3.90;;;3.17;;
23472;SDS011;11909;52.516;13.564;2023-05-07T08:53:02;4.07;;;3.00;;
23472;SDS011;11909;52.516;13.564;2023-05-07T08:55:31;7.30;;;4.20;;
23472;SDS011;11909;52.516;13.564;2023-05-07T08:57:59;23.45;;;11.65;;
23472;SDS011;11909;52.516;13.564;2023-05-07T09:00:27;6.22;;;4.38;;
23472;SDS011;11909;52.516;13.564;2023-05-07T09:02:55;5.55;;;3.30;;
23472;SDS011;11909;52.516;13.564;2023-05-07T09:05:23;4.20;;;3.35;;
23472;SDS011;11909;52.516;13.564;2023-05-07T09:07:52;3.90;;;2.88;;
23472;SDS011;11909;52.516;13.564;2023-05-07T09:10:23;4.18;;;3.22;;
23472;SDS011;11909;52.516;13.564;2023-05-07T09:12:51;3.97;;;3.30;;
23472;SDS011;11909;52.516;13.564;2023-05-07T09:15:19;7.70;;;3.20;;
23472;SDS011;11909;52.516;13.564;2023-05-07T09:17:47;5.20;;;2.67;;
23472;SDS011;11909;52.516;13.564;2023-05-07T09:20:16;64.78;;;36.85;;
23472;SDS011;11909;52.516;13.564;2023-05-07T09:22:45;27.13;;;16.63;;
23472;SDS011;11909;52.516;13.564;2023-05-07T09:25:14;7.35;;;4.70;;
23472;SDS011;11909;52.516;13.564;2023-05-07T09:27:42;3.40;;;2.97;;
23472;SDS011;11909;52.516;13.564;2023-05-07T09:30:10;4.53;;;3.08;;
23472;SDS011;11909;52.516;13.564;2023-05-07T09:32:39;3.92;;;2.92;;
23472;SDS011;11909;52.516;13.564;2023-05-07T09:35:14;3.20;;;2.55;;
23472;SDS011;11909;52.516;13.564;2023-05-07T09:37:42;2.85;;;2.50;;
23472;SDS011;11909;52.516;13.564;2023-05-07T09:40:21;3.40;;;2.50;;
23472;SDS011;11909;52.516;13.564;2023-05-07T09:42:49;2.97;;;2.00;;
23472;SDS011;11909;52.516;13.564;2023-05-07T09:45:21;2.55;;;2.13;;
23472;SDS011;11909;52.516;13.564;2023-05-07T09:47:52;4.93;;;2.17;;
23472;SDS011;11909;52.516;13.564;2023-05-07T09:50:25;2.30;;;2.10;;
23472;SDS011;11909;52.516;13.564;2023-05-07T09:52:54;3.05;;;1.92;;
23472;SDS011;11909;52.516;13.564;2023-05-07T09:55:23;4.18;;;2.08;;
23472;SDS011;11909;52.516;13.564;2023-05-07T09:57:52;3.23;;;2.00;;
23472;SDS011;11909;52.516;13.564;2023-05-07T10:00:22;2.75;;;2.10;;
23472;SDS011;11909;52.516;13.564;2023-05-07T10:02:51;2.58;;;1.90;;
23472;SDS011;11909;52.516;13.564;2023-05-07T10:05:19;2.92;;;2.00;;
23472;SDS011;11909;52.516;13.564;2023-05-07T10:07:48;1.98;;;1.52;;
23472;SDS011;11909;52.516;13.564;2023-05-07T10:10:17;3.38;;;2.10;;
23472;SDS011;11909;52.516;13.564;2023-05-07T10:12:46;4.40;;;1.92;;
23472;SDS011;11909;52.516;13.564;2023-05-07T10:15:14;14.18;;;9.18;;
23472;SDS011;11909;52.516;13.564;2023-05-07T10:17:42;4.47;;;3.20;;
23472;SDS011;11909;52.516;13.564;2023-05-07T10:20:11;1.70;;;1.60;;
23472;SDS011;11909;52.516;13.564;2023-05-07T10:22:41;3.50;;;1.70;;
23472;SDS011;11909;52.516;13.564;2023-05-07T10:25:13;2.97;;;1.80;;
23472;SDS011;11909;52.516;13.564;2023-05-07T10:27:44;3.92;;;2.10;;
23472;SDS011;11909;52.516;13.564;2023-05-07T10:30:18;2.10;;;1.90;;
23472;SDS011;11909;52.516;13.564;2023-05-07T10:32:59;2.47;;;1.90;;
23472;SDS011;11909;52.516;13.564;2023-05-07T10:35:36;1.67;;;1.55;;
23472;SDS011;11909;52.516;13.564;2023-05-07T10:38:07;4.15;;;1.90;;
23472;SDS011;11909;52.516;13.564;2023-05-07T10:40:35;3.25;;;1.80;;
23472;SDS011;11909;52.516;13.564;2023-05-07T10:43:05;4.93;;;2.65;;
23472;SDS011;11909;52.516;13.564;2023-05-07T10:45:36;2.33;;;2.00;;
23472;SDS011;11909;52.516;13.564;2023-05-07T10:48:07;3.08;;;1.73;;
23472;SDS011;11909;52.516;13.564;2023-05-07T10:51:18;3.15;;;2.00;;
23472;SDS011;11909;52.516;13.564;2023-05-07T10:53:46;3.45;;;2.00;;
23472;SDS011;11909;52.516;13.564;2023-05-07T10:56:24;2.53;;;1.60;;
23472;SDS011;11909;52.516;13.564;2023-05-07T10:58:54;3.33;;;2.00;;
23472;SDS011;11909;52.516;13.564;2023-05-07T11:04:19;2.65;;;1.92;;
23472;SDS011;11909;52.516;13.564;2023-05-07T11:09:54;2.28;;;2.08;;
23472;SDS011;11909;52.516;13.564;2023-05-07T11:12:46;13.05;;;7.90;;
23472;SDS011;11909;52.516;13.564;2023-05-07T11:18:08;3.25;;;2.25;;
23472;SDS011;11909;52.516;13.564;2023-05-07T11:20:50;7.10;;;3.88;;
23472;SDS011;11909;52.516;13.564;2023-05-07T11:26:44;2.67;;;1.80;;
23472;SDS011;11909;52.516;13.564;2023-05-07T11:29:14;3.95;;;1.80;;
23472;SDS011;11909;52.516;13.564;2023-05-07T11:31:51;3.25;;;1.90;;
23472;SDS011;11909;52.516;13.564;2023-05-07T11:34:20;3.50;;;1.92;;
23472;SDS011;11909;52.516;13.564;2023-05-07T11:36:49;2.10;;;1.90;;
23472;SDS011;11909;52.516;13.564;2023-05-07T11:39:24;2.50;;;1.88;;
23472;SDS011;11909;52.516;13.564;2023-05-07T11:41:56;1.77;;;1.60;;
23472;SDS011;11909;52.516;13.564;2023-05-07T11:44:24;3.20;;;1.73;;
23472;SDS011;11909;52.516;13.564;2023-05-07T11:46:53;4.28;;;1.90;;
23472;SDS011;11909;52.516;13.564;2023-05-07T11:49:24;1.80;;;1.40;;
23472;SDS011;11909;52.516;13.564;2023-05-07T11:51:54;3.15;;;1.60;;
23472;SDS011;11909;52.516;13.564;2023-05-07T11:54:22;3.42;;;1.80;;
23472;SDS011;11909;52.516;13.564;2023-05-07T11:56:49;2.38;;;1.70;;
23472;SDS011;11909;52.516;13.564;2023-05-07T11:59:17;3.40;;;2.25;;
23472;SDS011;11909;52.516;13.564;2023-05-07T12:01:46;7.95;;;5.38;;
23472;SDS011;11909;52.516;13.564;2023-05-07T12:04:20;3.28;;;1.75;;
23472;SDS011;11909;52.516;13.564;2023-05-07T12:06:53;3.63;;;1.50;;
23472;SDS011;11909;52.516;13.564;2023-05-07T12:09:22;4.75;;;1.67;;
23472;SDS011;11909;52.516;13.564;2023-05-07T12:11:51;1.95;;;1.75;;
23472;SDS011;11909;52.516;13.564;2023-05-07T12:14:19;3.40;;;1.55;;
23472;SDS011;11909;52.516;13.564;2023-05-07T12:16:47;1.77;;;1.40;;
23472;SDS011;11909;52.516;13.564;2023-05-07T12:19:15;3.28;;;1.42;;
23472;SDS011;11909;52.516;13.564;2023-05-07T12:21:44;4.75;;;3.50;;
23472;SDS011;11909;52.516;13.564;2023-05-07T12:24:13;2.63;;;1.90;;
23472;SDS011;11909;52.516;13.564;2023-05-07T12:26:42;2.03;;;1.40;;
23472;SDS011;11909;52.516;13.564;2023-05-07T12:29:10;3.55;;;1.50;;
23472;SDS011;11909;52.516;13.564;2023-05-07T12:31:40;3.88;;;1.70;;
23472;SDS011;11909;52.516;13.564;2023-05-07T12:34:08;1.88;;;1.30;;
23472;SDS011;11909;52.516;13.564;2023-05-07T12:36:38;3.22;;;1.52;;
23472;SDS011;11909;52.516;13.564;2023-05-07T12:39:08;1.98;;;1.50;;
23472;SDS011;11909;52.516;13.564;2023-05-07T12:41:51;1.40;;;1.30;;
23472;SDS011;11909;52.516;13.564;2023-05-07T12:44:21;3.30;;;1.48;;
23472;SDS011;11909;52.516;13.564;2023-05-07T12:46:49;3.20;;;1.67;;
23472;SDS011;11909;52.516;13.564;2023-05-07T12:49:18;2.38;;;1.50;;
23472;SDS011;11909;52.516;13.564;2023-05-07T12:51:50;3.72;;;1.50;;
23472;SDS011;11909;52.516;13.564;2023-05-07T12:54:28;2.25;;;1.40;;
23472;SDS011;11909;52.516;13.564;2023-05-07T12:57:00;3.42;;;1.52;;
23472;SDS011;11909;52.516;13.564;2023-05-07T12:59:32;2.65;;;1.75;;
23472;SDS011;11909;52.516;13.564;2023-05-07T13:02:01;1.63;;;1.50;;
23472;SDS011;11909;52.516;13.564;2023-05-07T13:04:29;1.80;;;1.60;;
23472;SDS011;11909;52.516;13.564;2023-05-07T13:06:57;2.08;;;1.45;;
23472;SDS011;11909;52.516;13.564;2023-05-07T13:09:26;2.78;;;1.58;;
23472;SDS011;11909;52.516;13.564;2023-05-07T13:11:56;1.83;;;1.58;;
23472;SDS011;11909;52.516;13.564;2023-05-07T13:14:26;2.33;;;1.50;;
23472;SDS011;11909;52.516;13.564;2023-05-07T13:16:54;2.13;;;1.30;;
23472;SDS011;11909;52.516;13.564;2023-05-07T13:19:21;1.67;;;1.30;;
23472;SDS011;11909;52.516;13.564;2023-05-07T13:21:50;11.50;;;5.65;;
23472;SDS011;11909;52.516;13.564;2023-05-07T13:24:18;4.13;;;2.50;;
23472;SDS011;11909;52.516;13.564;2023-05-07T13:26:46;2.50;;;1.42;;
23472;SDS011;11909;52.516;13.564;2023-05-07T13:29:15;2.22;;;1.20;;
23472;SDS011;11909;52.516;13.564;2023-05-07T13:31:43;1.88;;;1.50;;
23472;SDS011;11909;52.516;13.564;2023-05-07T13:34:14;3.92;;;1.52;;
23472;SDS011;11909;52.516;13.564;2023-05-07T13:36:41;3.00;;;1.58;;
23472;SDS011;11909;52.516;13.564;2023-05-07T13:39:09;1.70;;;1.60;;
23472;SDS011;11909;52.516;13.564;2023-05-07T13:41:37;1.60;;;1.50;;
23472;SDS011;11909;52.516;13.564;2023-05-07T13:44:06;1.70;;;1.50;;
23472;SDS011;11909;52.516;13.564;2023-05-07T13:46:35;6.15;;;1.80;;
23472;SDS011;11909;52.516;13.564;2023-05-07T13:49:03;2.90;;;1.67;;
23472;SDS011;11909;52.516;13.564;2023-05-07T13:51:31;3.10;;;1.65;;
23472;SDS011;11909;52.516;13.564;2023-05-07T13:53:59;3.45;;;1.40;;
23472;SDS011;11909;52.516;13.564;2023-05-07T13:56:27;2.08;;;1.60;;
23472;SDS011;11909;52.516;13.564;2023-05-07T13:58:57;5.33;;;1.70;;
23472;SDS011;11909;52.516;13.564;2023-05-07T14:01:26;2.08;;;1.33;;
23472;SDS011;11909;52.516;13.564;2023-05-07T14:03:57;1.67;;;1.50;;
23472;SDS011;11909;52.516;13.564;2023-05-07T14:06:26;2.65;;;1.83;;
23472;SDS011;11909;52.516;13.564;2023-05-07T14:08:54;1.80;;;1.42;;
23472;SDS011;11909;52.516;13.564;2023-05-07T14:11:24;5.13;;;1.35;;
23472;SDS011;11909;52.516;13.564;2023-05-07T14:13:52;2.15;;;1.40;;
23472;SDS011;11909;52.516;13.564;2023-05-07T14:16:19;2.65;;;1.40;;
23472;SDS011;11909;52.516;13.564;2023-05-07T14:18:47;1.92;;;1.20;;
23472;SDS011;11909;52.516;13.564;2023-05-07T14:21:18;2.70;;;1.40;;
23472;SDS011;11909;52.516;13.564;2023-05-07T14:23:46;2.85;;;1.25;;
23472;SDS011;11909;52.516;13.564;2023-05-07T14:26:14;2.22;;;1.27;;
23472;SDS011;11909;52.516;13.564;2023-05-07T14:28:42;3.28;;;1.30;;
23472;SDS011;11909;52.516;13.564;2023-05-07T14:31:12;2.33;;;1.20;;
23472;SDS011;11909;52.516;13.564;2023-05-07T14:33:40;1.58;;;1.23;;
23472;SDS011;11909;52.516;13.564;2023-05-07T14:36:08;2.85;;;1.25;;
23472;SDS011;11909;52.516;13.564;2023-05-07T14:38:37;1.73;;;1.38;;
23472;SDS011;11909;52.516;13.564;2023-05-07T14:41:05;2.40;;;1.35;;
23472;SDS011;11909;52.516;13.564;2023-05-07T14:43:33;2.67;;;1.50;;
23472;SDS011;11909;52.516;13.564;2023-05-07T14:46:01;2.13;;;1.27;;
23472;SDS011;11909;52.516;13.564;2023-05-07T14:48:29;2.22;;;1.23;;
23472;SDS011;11909;52.516;13.564;2023-05-07T14:50:57;4.00;;;0.90;;
23472;SDS011;11909;52.516;13.564;2023-05-07T14:53:25;2.90;;;1.30;;
23472;SDS011;11909;52.516;13.564;2023-05-07T14:55:54;1.70;;;1.17;;
23472;SDS011;11909;52.516;13.564;2023-05-07T14:58:21;1.38;;;1.20;;